KMKG

Muskegon County Airport

Muskegon, Michigan, USA
KMKG 181140Z 1812/1912 20007KT P6SM SCT050 BKN120 FM181700 26010KT P6SM VCTS SCT050CB BKN110 FM190600 VRB03KT P6SM SCT025 BKN070
Issued Valid From Valid To
Jun-18 @ 11:40 UTC
(an hour ago)
Jun-18 @ 12:00 UTC
(an hour ago)
Jun-19 @ 12:00 UTC
(in 23 hours)
Jun-18 @ 12:00 to Jun-18 @ 17:00
KMKG 181140Z 1812/1912 20007KT P6SM SCT050 BKN120
Wind Visibility Clouds
200° at 7 knots Greater than 6 miles
  • Scattered at 5,000' AGL
  • Broken at 12,000' AGL
From Jun-18 @ 17:00 to Jun-19 @ 06:00
FM181700 26010KT P6SM VCTS SCT050CB BKN110
Wind Visibility Clouds Conditions
260° at 10 knots Greater than 6 miles
  • Scattered at 5,000' AGL
  • Broken at 11,000' AGL
  • Area Thunderstorm
From Jun-19 @ 06:00 to Jun-19 @ 12:00
FM190600 VRB03KT P6SM SCT025 BKN070
Wind Visibility Clouds
Variable at 3 knots Greater than 6 miles
  • Scattered at 2,500' AGL
  • Broken at 7,000' AGL
KMKG 181140Z 1812/1912 20007KT P6SM SCT050 BKN120 FM181700 26010KT P6SM VCTS SCT050CB BKN110 FM190600 VRB03KT P6SM SCT025 BKN070
Issued Jun-18 @ 11:40 UTC
(an hour ago)
Valid From Jun-18 @ 12:00 UTC
(an hour ago)
Valid To Jun-19 @ 12:00 UTC
(in 23 hours)
Jun-18 @ 12:00 - Jun-18 @ 17:00
Wind Visibility
200° at 7 knots Greater than 6 miles
Clouds
  • Scattered at 5,000' AGL
  • Broken at 12,000' AGL
From Jun-18 @ 17:00 - Jun-19 @ 06:00
Wind Visibility
260° at 10 knots Greater than 6 miles
Clouds
  • Scattered at 5,000' AGL
  • Broken at 11,000' AGL
Conditions
  • Area Thunderstorm
From Jun-19 @ 06:00 - Jun-19 @ 12:00
Wind Visibility
Variable at 3 knots Greater than 6 miles
Clouds
  • Scattered at 2,500' AGL
  • Broken at 7,000' AGL